EA1FHR
43.28.72N 005.26.41W
IN73GL aprs.fi
zuletzt gehoert:
2023-02-04T20:46:27Z
zuerst gehoert:
2020-08-11T06:00:09Z

APRS IN73GL, 2 Stunde(n), EA1FHR [22:01:44, 0s].
EA1FHR 43.28.72N 005.26.41WIN73GL 0.583km 336°NNW20:46:27ZMMDVM MMDVM HS Hat 439.1500/439.1500 CC1
EA1JW 43.31.35N 005.28.83WIN73GM 6.426km 327°NNW20:47:47ZMMDVM MMDVM HS Hat 436.5000/436.5000 CC1(3EA1JW-3)
EB1GEM 43.30.00N 005.36.07WIN73EM 13.527km 283°WNW21:00:10ZWX3in1Plus2.0 U=13.3V,T=??.?C/??.?F(3EB1GEM-3)
EA1JBE 43.30.90N 005.16.15WIN73IM 14.321km 71°ENE21:00:26ZMAIN QTH http://qrz.com/db/ea1jbe(3EA1JBE-1)
MAIN QTH http://qrz.com/db/ea1jbe(2EA1JBE-13)
EA4ACU 43.29.56N 005.38.92WIN73EL 17.183km 277°W20:48:47ZMMDVM MMDVM HS Hat 432.7000/432.7000 CC1(3EA4ACU-1)
EA1FLQ 43.22.00N 005.36.35WIN73EI 18.092km 229°SW20:46:41ZMMDVM DVMega 430.9750/430.9750 CC1
EA1IEJ 43.32.33N 005.38.92WIN73EM 18.501km 293°WNW20:48:02ZMMDVM MMDVM HS Hat 438.8500/438.8500 CC6(3EA1IEJ-1)
MMDVM DMO 222.3400/222.3400 CC1(2EA1IEJ-11)
ED1ZAS 43.27.52N 005.40.17WIN73DL 18.813km 265°W20:45:55ZRD985 438.2250/430.6250 CC1
ED1ZAE 43.27.99N 005.40.54WIN73DL 19.253km 268°W20:50:34Z400 M. PICO SAN MARTIN (GIJON) 13.2V,8.6C(3ED1ZAE-3)
EA1DZR 43.31.49N 005.40.00WIN73DM 19.354km 287°WNW20:47:52ZMMDVM MMDVM HS Hat 432.2000/432.2000 CC2(3EA1DZR-2)
MMDVM DMO 434.3500/434.3500 CC1(2EA1DZR-4)
MMDVM DVMega 431.1000/431.1000 CC1(2EA1DZR-1)
EA1FFA 43.31.53N 005.40.64WIN73DM 20.186km 287°WNW20:48:13ZMMDVM MMDVM HS Hat 438.8000/438.8000 CC1(3EA1FFA-1)
LEEL 43.32.98N 005.41.71WIN73DN 22.437km 292°WNW21:00:04ZHelipuerto de El Musel: LEAS 042000Z 11005KT 090V160 9999 FEW020 07/05 Q1038 NOSIG=
EA1FPN 43.32.38N 005.42.17WIN73DM 22.617km 289°WNW20:47:15ZMMDVM MMDVM HS Hat 439.8750/439.8750 CC1
EB1TK 43.32.22N 005.42.32WIN73DM 22.720km 288°WNW20:55:15ZWind 078°/013kn, Böen bis 017kn, Temp 10.56c, Regen 0.0mm, letzte 24h 0.0mm, seit 0h 0.0mm, Baro 1041.6h, Hum: 75%(3EB1TK-13)
EA1IPU 43.26.21N 005.46.62WIN73CK 27.709km 262°W20:47:56ZMMDVM MMDVM HS Hat 439.8000/439.8000 CC1(3EA1IPU-1)
EA1ABW 43.24.77N 005.47.77WIN73CJ 29.750km 257°WSW20:47:34ZMMDVM MMDVM HS Hat 439.8250/439.8250 CC1(3EA1ABW-2)
ED1ZBF 43.19.16N 005.06.74WIN73KH 31.362km 123°ESE20:45:59ZRD625 438.4750/430.8750 CC1
LEMR 43.25.83N 005.49.60WIN73CK 31.796km 261°W21:00:04ZAerodromo de la Morgal (123.500MHz): LEAS 042000Z 11005KT 090V160 9999 FEW020 07/05 Q1038 NOSIG=
LEGM 43.26.15N 005.49.84WIN73CK 32.014km 263°W21:00:04ZHelipuerto de La Morgal (123.500MHz): LEAS 042000Z 11005KT 090V160 9999 FEW020 07/05 Q1038 NOSIG=
LEHU 43.22.63N 005.49.57WIN73CJ 33.191km 251°WSW21:00:04ZHelipuerto del HUCA: LEAS 042000Z 11005KT 090V160 9999 FEW020 07/05 Q1038 NOSIG=
EA1JBU 43.21.85N 005.51.13WIN73BI 35.655km 250°WSW21:00:08ZEA1JBU(3EA1JBU-1)
33D00 43.21.63N 005.51.13WIN73BI 35.785km 250°WSW21:01:42Z33-D-00 Protección Civil REMER / Delegación del Gobierno en Asturias
EA1JAY 43.21.54N 005.51.34WIN73BI 36.121km 249°WSW21:00:08ZEA1JAY(3EA1JAY-2)
434.525MHz Nodo TETRA DMO(2EA1JAY-4)
EA1HDI 43.21.47N 005.51.65WIN73BI 36.551km 250°WSW20:09:28ZRX DMR TG 214012(3EA1HDI-9)
EA1L 43.20.37N 005.51.13WIN73BI 36.670km 246°WSW21:00:09ZWind 007°/003kn, Böen bis 005kn, Temp 7.78c, Regen 0.0mm, letzte 24h 0.0mm, seit 0h 0.0mm, Baro 1036.5h, Hum: 89%(3EA1L-13)
ED1ZAU 43.23.04N 005.52.75WIN73BJ 37.052km 255°WSW20:45:55ZRD625 438.5000/430.9000 CC1
EA1HJA 43.21.47N 005.52.09WIN73BI 37.106km 250°WSW20:51:03ZEA1HJA@URE.ES(3EA1HJA-2)
EA1HJA@URE.ES(2EA1HJA)
EA1HWX 43.19.29N 005.50.96WIN73BH 37.350km 243°WSW20:48:16ZDMO - UHF 439.7250/431.0000 CC11(3EA1HWX-2)
EA1IMW 43.14.36N 005.46.93WIN73CF 38.164km 227°SW20:47:56ZGRUPO RADIO GALENA (GRG) 430.4500/430.4500 CC1(3EA1IMW-1)
EB1DGC 43.12.60N 005.45.59WIN73CF 39.254km 222°SW20:46:29ZMMDVM MMDVM HS Hat 433.4500/433.4500 CC1
ED1ZAY 43.29.47N 005.56.54WIN73AL 40.789km 273°W20:46:00ZRD625 438.3000/430.7000 CC1
EB1FE 43.19.20N 005.54.00WIN73BH 41.097km 246°WSW20:47:48ZMMDVM MMDVM HS Hat 430.4000/430.4000 CC1(3EB1FE-1)
ED1ZAD 43.07.90N 005.38.52WIN73ED 41.478km 204°SSW20:55:40ZED1ZAD-3 APRS Digi/Igate(3ED1ZAD-3)
EA1HWA 43.12.00N 005.47.40WIN73CE 41.712km 223°SW20:46:46ZMMDVM MMDVM HS Hat 433.4500/433.4500 CC1

aprs.pl 5.0.011w DL3EL © 2006-2021 [10385430]